Time;durP1;ratioP1;P1;durP2;ratioP2;P2;SDS_P1;SDS_P2;PMS_P1;PMS_P2;Temp;Humidity;BMP_temperature;BMP_pressure;BME280_temperature;BME280_humidity;BME280_pressure;Samples;Min_cycle;Max_cycle;Signal;HPM_P1;HPM_P2
2022/08/26 00:02:06;;;;;;;7.00;2.70;;;;;;;17.05;79.24;96610.73;108252;1271;22619;-80
2022/08/26 00:04:37;;;;;;;10.80;3.30;;;;;;;17.07;79.13;96606.39;108053;1271;37607;-80
2022/08/26 00:07:08;;;;;;;7.10;3.30;;;;;;;17.06;78.98;96605.06;108183;1270;23006;-80
2022/08/26 00:09:40;;;;;;;8.20;4.00;;;;;;;16.98;78.68;96604.91;108202;1271;22567;-81
2022/08/26 00:12:11;;;;;;;8.40;3.10;;;;;;;16.92;79.22;96601.00;108233;1270;22547;-81
2022/08/26 00:14:43;;;;;;;7.30;4.00;;;;;;;16.71;79.66;96605.16;108133;1271;33703;-80
2022/08/26 00:17:15;;;;;;;8.50;3.80;;;;;;;16.47;80.27;96603.95;108129;1271;22576;-80
2022/08/26 00:19:49;;;;;;;8.00;3.40;;;;;;;16.37;80.91;96601.83;108220;1271;22528;-80
2022/08/26 00:22:21;;;;;;;4.90;3.60;;;;;;;16.41;81.09;96605.00;108064;1271;22597;-80
2022/08/26 00:24:52;;;;;;;6.80;3.50;;;;;;;16.52;81.43;96606.79;108123;1271;30207;-80
2022/08/26 00:27:25;;;;;;;10.10;3.60;;;;;;;16.57;81.18;96605.32;108248;1271;24173;-80
2022/08/26 00:29:57;;;;;;;7.00;3.90;;;;;;;16.59;81.08;96606.77;108181;1271;23582;-80
2022/08/26 00:32:28;;;;;;;6.10;3.40;;;;;;;16.49;81.28;96606.88;108178;1271;22573;-80
2022/08/26 00:35:02;;;;;;;7.50;3.70;;;;;;;16.40;81.49;96606.64;108128;1270;24201;-80
2022/08/26 00:37:37;;;;;;;9.60;3.40;;;;;;;16.40;81.78;96604.72;108189;1270;24423;-80
2022/08/26 00:40:12;;;;;;;7.80;4.10;;;;;;;16.42;81.79;96606.63;108302;1270;22607;-81
2022/08/26 00:42:46;;;;;;;6.40;3.60;;;;;;;16.49;81.67;96606.05;108262;1271;24309;-80
2022/08/26 00:45:22;;;;;;;6.20;3.60;;;;;;;16.57;81.79;96608.14;108132;1271;32135;-80
2022/08/26 00:47:57;;;;;;;6.30;3.40;;;;;;;16.59;81.82;96606.33;108257;1271;22559;-80
2022/08/26 00:50:36;;;;;;;7.20;3.50;;;;;;;16.60;81.38;96605.08;108287;1271;22555;-80
2022/08/26 00:53:20;;;;;;;7.80;3.70;;;;;;;16.59;81.20;96607.62;108257;1271;22532;-80
2022/08/26 00:55:59;;;;;;;7.60;3.90;;;;;;;16.52;81.14;96606.19;108055;1270;45288;-80
2022/08/26 00:58:34;;;;;;;8.70;3.50;;;;;;;16.31;81.30;96606.39;108289;1270;22705;-80
2022/08/26 01:01:10;;;;;;;6.30;3.70;;;;;;;16.21;81.64;96606.80;108248;1271;22537;-80
2022/08/26 01:03:48;;;;;;;5.90;3.40;;;;;;;16.24;82.16;96609.81;108198;1270;25430;-80
2022/08/26 01:06:20;;;;;;;10.20;3.40;;;;;;;16.22;82.14;96610.52;108312;1269;22555;-80
2022/08/26 01:08:57;;;;;;;5.80;3.70;;;;;;;16.17;82.38;96608.63;108290;1269;22543;-80
2022/08/26 01:11:32;;;;;;;11.30;4.20;;;;;;;16.20;82.24;96609.05;108243;1271;22594;-80
2022/08/26 01:14:08;;;;;;;6.00;3.30;;;;;;;16.30;81.86;96613.21;108198;1270;32016;-80
2022/08/26 01:16:40;;;;;;;10.10;3.80;;;;;;;16.36;81.36;96610.73;108251;1271;22562;-80
2022/08/26 01:19:25;;;;;;;7.20;3.50;;;;;;;16.32;81.35;96613.63;108178;1271;23104;-80
2022/08/26 01:21:59;;;;;;;5.80;3.50;;;;;;;16.26;81.48;96610.76;108165;1271;24277;-80
2022/08/26 01:24:33;;;;;;;8.30;4.10;;;;;;;16.29;81.28;96610.41;108140;1271;52096;-80
2022/08/26 01:27:10;;;;;;;7.40;3.40;;;;;;;16.32;80.93;96610.23;108252;1271;25374;-81
2022/08/26 01:29:45;;;;;;;7.40;3.50;;;;;;;16.32;80.71;96609.44;108202;1271;26595;-80
2022/08/26 01:32:21;;;;;;;11.10;4.10;;;;;;;16.29;80.57;96609.90;108072;1271;22547;-80
2022/08/26 01:34:53;;;;;;;8.30;3.80;;;;;;;16.28;80.52;96609.37;108100;1271;27428;-80
2022/08/26 01:37:29;;;;;;;7.30;3.60;;;;;;;16.31;80.59;96610.19;108156;1271;22543;-80
2022/08/26 01:40:01;;;;;;;11.30;3.70;;;;;;;16.37;80.69;96607.58;108228;1271;22670;-80
2022/08/26 01:42:32;;;;;;;8.30;3.40;;;;;;;16.44;80.79;96612.14;108217;1271;22554;-80
2022/08/26 01:45:12;;;;;;;6.70;3.30;;;;;;;16.47;80.62;96617.33;108128;1271;67702;-80
2022/08/26 01:47:47;;;;;;;8.00;3.70;;;;;;;16.48;80.34;96612.88;108194;1271;22554;-80
2022/08/26 01:50:30;;;;;;;6.20;3.60;;;;;;;16.49;80.23;96609.53;108237;1271;22551;-81
2022/08/26 01:53:07;;;;;;;9.30;3.20;;;;;;;16.51;80.44;96610.19;108259;1271;22684;-81
2022/08/26 01:55:46;;;;;;;6.70;3.30;;;;;;;16.50;80.24;96615.27;108150;1271;30243;-81
2022/08/26 01:58:32;;;;;;;7.80;3.50;;;;;;;16.48;80.31;96613.64;108258;1271;24249;-81
2022/08/26 02:01:07;;;;;;;6.70;3.40;;;;;;;16.46;80.43;96612.00;108252;1270;22525;-81
2022/08/26 02:03:49;;;;;;;6.10;3.00;;;;;;;16.42;80.26;96609.77;108150;1271;49427;-82
2022/08/26 02:06:22;;;;;;;6.20;3.50;;;;;;;16.37;79.99;96610.55;108174;1271;25627;-81
2022/08/26 02:08:56;;;;;;;6.20;3.40;;;;;;;16.36;79.90;96607.15;108175;1271;25447;-81
2022/08/26 02:11:28;;;;;;;6.00;3.30;;;;;;;16.36;79.85;96604.86;108176;1271;22539;-82
2022/08/26 02:14:04;;;;;;;8.70;3.70;;;;;;;16.33;79.71;96604.61;107889;1271;77735;-82
2022/08/26 02:16:41;;;;;;;7.60;3.20;;;;;;;16.29;79.49;96604.23;108187;1270;25478;-81
2022/08/26 02:19:18;;;;;;;7.90;3.30;;;;;;;16.23;79.21;96603.90;108164;1271;22563;-82
2022/08/26 02:21:53;;;;;;;5.40;3.40;;;;;;;16.24;79.24;96600.66;108179;1271;25446;-82
2022/08/26 02:24:29;;;;;;;9.90;3.50;;;;;;;16.30;79.38;96598.11;108122;1270;32818;-82
2022/08/26 02:27:03;;;;;;;8.70;3.20;;;;;;;16.32;79.28;96594.05;108193;1271;25245;-82
2022/08/26 02:29:41;;;;;;;8.70;3.50;;;;;;;16.25;79.33;96595.91;108215;1271;22541;-82
2022/08/26 02:32:14;;;;;;;8.90;3.60;;;;;;;16.24;79.45;96597.13;108279;1271;22719;-82
2022/08/26 02:34:46;;;;;;;8.90;3.90;;;;;;;16.29;79.74;96594.35;108263;1271;30355;-82
2022/08/26 02:37:17;;;;;;;7.90;4.00;;;;;;;16.36;79.70;96594.56;108268;1271;22560;-82
2022/08/26 02:39:48;;;;;;;10.70;4.10;;;;;;;16.42;79.60;96591.92;108327;1271;22521;-82
2022/08/26 02:42:19;;;;;;;7.80;3.40;;;;;;;16.44;79.49;96591.64;108246;1271;22628;-82
2022/08/26 02:44:50;;;;;;;8.20;3.80;;;;;;;16.38;79.34;96588.98;108227;1270;27578;-82
2022/08/26 02:47:21;;;;;;;7.50;4.10;;;;;;;16.38;79.64;96590.71;108284;1271;22544;-82
2022/08/26 02:49:53;;;;;;;7.00;4.10;;;;;;;16.42;79.68;96592.88;108246;1271;22623;-82
2022/08/26 02:52:24;;;;;;;7.20;4.20;;;;;;;16.40;79.68;96591.42;108285;1271;22522;-82
2022/08/26 02:54:55;;;;;;;12.10;4.30;;;;;;;16.37;79.70;96587.06;108018;1271;28088;-82
2022/08/26 02:57:26;;;;;;;7.90;4.10;;;;;;;16.33;79.81;96586.94;108293;1271;22613;-82
2022/08/26 02:59:59;;;;;;;11.80;3.80;;;;;;;16.30;79.89;96583.93;108319;1270;22545;-82
2022/08/26 03:02:30;;;;;;;9.70;4.00;;;;;;;16.33;80.08;96582.85;108304;1270;24262;-82
2022/08/26 03:05:02;;;;;;;8.70;4.30;;;;;;;16.33;80.10;96584.23;108223;1271;27599;-82
2022/08/26 03:07:33;;;;;;;7.90;4.60;;;;;;;16.33;80.21;96583.10;108341;1271;22546;-82
2022/08/26 03:10:05;;;;;;;10.60;4.20;;;;;;;16.36;80.21;96583.14;108313;1271;22559;-82
2022/08/26 03:12:37;;;;;;;11.40;4.50;;;;;;;16.39;80.23;96582.59;108316;1271;22528;-82
2022/08/26 03:15:10;;;;;;;8.30;4.10;;;;;;;16.43;80.35;96580.84;108192;1271;32999;-81
2022/08/26 03:17:41;;;;;;;8.40;4.60;;;;;;;16.44;80.21;96580.44;107977;1271;22540;-82
2022/08/26 03:20:13;;;;;;;9.20;4.30;;;;;;;16.42;80.17;96579.27;108181;1271;22571;-82
2022/08/26 03:22:50;;;;;;;8.00;4.40;;;;;;;16.42;80.32;96575.05;108277;1270;22619;-82
2022/08/26 03:25:22;;;;;;;8.20;4.50;;;;;;;16.40;80.33;96574.15;108177;1271;25434;-83
2022/08/26 03:27:53;;;;;;;8.80;4.70;;;;;;;16.37;80.49;96568.49;108251;1270;22692;-84
2022/08/26 03:30:48;;;;;;;7.80;4.30;;;;;;;16.35;80.57;96564.00;108239;1269;22620;-82
2022/08/26 03:33:19;;;;;;;7.00;4.10;;;;;;;16.33;80.57;96565.66;108194;1270;24276;-83
2022/08/26 03:35:52;;;;;;;9.40;4.30;;;;;;;16.31;80.70;96563.56;108152;1269;41740;-82
2022/08/26 03:38:25;;;;;;;9.40;4.30;;;;;;;16.27;80.59;96564.99;108220;1269;22524;-82
2022/08/26 03:40:56;;;;;;;8.90;4.50;;;;;;;16.18;80.57;96568.21;108157;1269;22764;-84
2022/08/26 03:43:27;;;;;;;7.80;4.70;;;;;;;16.09;80.81;96562.70;108126;1269;22732;-83
2022/08/26 03:46:04;;;;;;;7.70;4.00;;;;;;;16.09;81.20;96563.27;108130;1269;22605;-83
2022/08/26 03:48:35;;;;;;;7.50;3.80;;;;;;;16.06;81.28;96561.32;108137;1270;22525;-82
2022/08/26 03:51:14;;;;;;;11.00;4.30;;;;;;;15.95;81.25;96562.07;108129;1271;22581;-82
2022/08/26 03:53:46;;;;;;;5.80;4.20;;;;;;;15.87;81.45;96564.90;108042;1271;56661;-81
2022/08/26 03:56:17;;;;;;;9.00;4.00;;;;;;;15.85;81.54;96565.41;108177;1270;24329;-82
2022/08/26 03:58:48;;;;;;;10.30;4.00;;;;;;;15.84;81.68;96567.58;108112;1271;22644;-82
2022/08/26 04:01:20;;;;;;;7.60;3.90;;;;;;;15.83;81.76;96564.12;108114;1271;22599;-82
2022/08/26 04:04:00;;;;;;;6.60;4.00;;;;;;;15.79;81.82;96562.11;108044;1271;40957;-82
2022/08/26 04:06:34;;;;;;;11.60;3.70;;;;;;;15.82;82.09;96568.12;108118;1271;22607;-83
2022/08/26 04:09:07;;;;;;;7.60;4.10;;;;;;;15.86;82.14;96566.71;108135;1270;24401;-83
2022/08/26 04:11:40;;;;;;;8.20;4.00;;;;;;;15.99;82.20;96563.23;108125;1269;22528;-83
2022/08/26 04:14:14;;;;;;;7.50;3.80;;;;;;;16.11;82.04;96570.50;108053;1270;36005;-83
2022/08/26 04:16:46;;;;;;;6.10;3.70;;;;;;;16.23;81.79;96569.50;108100;1271;22563;-83
2022/08/26 04:19:19;;;;;;;6.20;3.50;;;;;;;16.27;81.54;96566.70;108141;1271;22537;-83
2022/08/26 04:21:51;;;;;;;6.00;3.40;;;;;;;16.13;81.38;96562.02;108117;1271;22548;-83
2022/08/26 04:24:26;;;;;;;10.50;4.00;;;;;;;16.19;81.94;96568.16;108043;1271;27620;-83
2022/08/26 04:26:57;;;;;;;7.20;4.40;;;;;;;16.65;82.42;96566.91;108166;1270;24301;-83
2022/08/26 04:29:28;;;;;;;11.00;4.10;;;;;;;17.20;81.83;96564.98;108111;1271;25328;-83
2022/08/26 04:32:01;;;;;;;5.90;3.40;;;;;;;17.61;80.96;96562.77;108143;1271;22673;-81
2022/08/26 04:34:33;;;;;;;9.80;4.80;;;;;;;18.25;80.69;96565.13;108028;1269;31481;-83
2022/08/26 04:37:19;;;;;;;7.30;4.40;;;;;;;19.06;80.01;96566.42;108127;1270;22571;-83
2022/08/26 04:39:54;;;;;;;7.60;3.80;;;;;;;19.98;78.36;96567.85;108136;1269;22535;-83
2022/08/26 04:42:25;;;;;;;8.30;4.00;;;;;;;20.68;75.95;96568.02;108140;1271;22531;-82
2022/08/26 04:44:57;;;;;;;6.70;3.60;;;;;;;21.19;74.91;96565.88;108073;1270;26089;-83
2022/08/26 04:47:29;;;;;;;6.60;3.80;;;;;;;22.03;74.19;96565.84;108113;1271;22558;-82
2022/08/26 04:50:00;;;;;;;7.50;3.90;;;;;;;22.93;72.47;96557.84;108110;1271;23352;-83
2022/08/26 04:52:32;;;;;;;6.40;4.40;;;;;;;23.72;70.48;96556.92;108125;1269;22525;-83
2022/08/26 04:55:08;;;;;;;11.00;3.80;;;;;;;24.31;67.91;96561.30;108155;1269;26430;-82
2022/08/26 04:57:39;;;;;;;9.50;3.40;;;;;;;24.94;66.98;96561.80;108152;1270;25479;-83
2022/08/26 05:00:16;;;;;;;9.90;3.70;;;;;;;25.52;65.12;96558.06;108082;1271;23040;-84
2022/08/26 05:02:47;;;;;;;7.40;3.50;;;;;;;26.08;63.61;96555.17;108119;1271;22573;-84
2022/08/26 05:05:19;;;;;;;9.10;3.80;;;;;;;26.75;62.30;96552.20;108095;1271;30537;-83
2022/08/26 05:07:51;;;;;;;7.60;3.80;;;;;;;27.42;60.85;96555.36;108169;1271;25288;-84
2022/08/26 05:10:23;;;;;;;8.30;3.70;;;;;;;28.05;59.76;96555.24;108122;1271;22531;-82
2022/08/26 05:12:58;;;;;;;8.20;4.30;;;;;;;28.66;57.96;96559.09;108019;1271;22526;-83
2022/08/26 05:15:32;;;;;;;9.80;4.00;;;;;;;29.17;57.07;96560.13;108097;1270;26088;-83
2022/08/26 05:18:05;;;;;;;9.00;4.20;;;;;;;29.53;54.85;96555.81;108286;1270;24230;-82
2022/08/26 05:20:44;;;;;;;7.30;3.90;;;;;;;29.76;53.89;96557.33;108253;1270;26426;-79
2022/08/26 05:23:16;;;;;;;7.10;3.70;;;;;;;30.14;52.90;96553.45;107959;1270;22655;-79
2022/08/26 05:25:51;;;;;;;8.20;3.80;;;;;;;30.77;52.24;96551.61;107916;1270;40079;-81
2022/08/26 05:28:24;;;;;;;9.00;3.80;;;;;;;31.38;50.74;96548.23;108305;1270;23837;-85
2022/08/26 05:30:56;;;;;;;7.50;4.10;;;;;;;31.92;49.48;96547.34;108279;1270;22729;-81
2022/08/26 05:33:28;;;;;;;9.30;3.40;;;;;;;32.30;48.34;96548.91;108299;1270;24291;-82
2022/08/26 05:36:09;;;;;;;8.70;3.80;;;;;;;32.72;48.36;96554.03;108287;1270;25889;-81
2022/08/26 05:38:44;;;;;;;7.30;3.40;;;;;;;33.42;47.33;96558.34;108255;1270;25447;-80
2022/08/26 05:41:26;;;;;;;6.30;3.20;;;;;;;33.80;45.67;96553.88;108233;1270;24491;-80
2022/08/26 05:44:07;;;;;;;9.00;3.70;;;;;;;33.73;43.79;96561.36;108204;1270;31867;-81
2022/08/26 05:46:44;;;;;;;7.10;3.40;;;;;;;33.33;42.53;96561.07;108236;1270;22541;-79
2022/08/26 05:49:17;;;;;;;7.40;3.30;;;;;;;32.95;41.41;96558.61;108253;1270;22795;-76
2022/08/26 05:51:48;;;;;;;9.60;4.10;;;;;;;32.71;41.56;96558.44;107834;1270;22524;-77
2022/08/26 05:54:20;;;;;;;6.30;3.10;;;;;;;32.66;41.36;96558.70;107656;1270;24197;-76
2022/08/26 05:56:52;;;;;;;9.20;3.50;;;;;;;32.87;41.44;96562.89;107661;1271;22644;-77
2022/08/26 05:59:25;;;;;;;10.50;3.50;;;;;;;33.00;40.65;96560.48;107828;1269;22532;-76
2022/08/26 06:01:57;;;;;;;9.80;3.50;;;;;;;33.10;39.85;96560.58;107820;1269;25532;-78
2022/08/26 06:04:28;;;;;;;6.10;3.50;;;;;;;33.45;40.05;96558.58;107705;1271;29067;-78
2022/08/26 06:06:59;;;;;;;7.30;3.10;;;;;;;34.32;40.00;96553.13;107931;1270;22545;-77
2022/08/26 06:09:31;;;;;;;9.50;3.60;;;;;;;35.02;39.23;96550.38;107847;1270;22519;-77
2022/08/26 06:12:02;;;;;;;8.10;3.50;;;;;;;35.75;38.51;96550.92;107993;1269;24309;-75
2022/08/26 06:14:34;;;;;;;7.20;3.40;;;;;;;36.41;38.00;96547.86;107740;1271;23417;-75
2022/08/26 06:17:05;;;;;;;4.70;3.00;;;;;;;37.18;37.41;96550.88;107852;1271;24183;-74
2022/08/26 06:19:39;;;;;;;9.00;3.70;;;;;;;37.88;36.68;96553.03;107938;1270;22571;-74
2022/08/26 06:27:45;;;;;;;8.00;3.40;;;;;;;38.85;33.79;96553.45;107934;1271;22518;-74
2022/08/26 06:30:17;;;;;;;6.90;3.00;;;;;;;38.93;33.63;96554.47;107981;1270;22571;-75
2022/08/26 06:32:48;;;;;;;7.20;3.70;;;;;;;39.36;33.24;96553.25;107981;1270;25398;-74
2022/08/26 06:35:20;;;;;;;8.20;3.50;;;;;;;39.82;33.07;96547.90;107934;1271;26749;-74
2022/08/26 06:37:55;;;;;;;10.60;3.50;;;;;;;40.19;31.64;96547.94;107900;1271;25265;-74
2022/08/26 06:40:33;;;;;;;11.00;3.90;;;;;;;40.16;31.72;96549.69;107983;1270;22715;-74
2022/08/26 06:43:04;;;;;;;7.30;3.60;;;;;;;40.21;31.19;96551.65;107908;1271;23992;-75
2022/08/26 06:45:36;;;;;;;6.90;3.70;;;;;;;39.92;30.42;96552.15;107889;1269;25407;-76
2022/08/26 06:48:07;;;;;;;8.10;3.30;;;;;;;40.20;31.29;96553.36;108014;1271;22532;-75
2022/08/26 06:50:38;;;;;;;5.30;2.80;;;;;;;40.77;30.68;96551.07;107978;1270;22569;-75
2022/08/26 06:53:11;;;;;;;5.40;3.20;;;;;;;41.25;30.63;96554.00;107841;1271;22557;-75
2022/08/26 06:55:53;;;;;;;4.50;3.30;;;;;;;41.56;28.62;96559.61;107920;1270;32231;-72
2022/08/26 06:58:25;;;;;;;6.30;3.10;;;;;;;41.17;28.84;96561.42;107969;1271;22629;-72
2022/08/26 07:00:56;;;;;;;10.00;3.40;;;;;;;41.53;29.02;96562.33;107949;1271;22534;-72
2022/08/26 07:03:30;;;;;;;5.80;3.30;;;;;;;41.99;28.73;96561.11;107965;1271;22570;-73
2022/08/26 07:06:05;;;;;;;5.60;3.00;;;;;;;42.22;27.06;96559.55;107915;1270;25933;-72
2022/08/26 07:08:37;;;;;;;7.20;3.00;;;;;;;41.25;26.03;96555.52;107928;1271;22534;-72
2022/08/26 07:11:10;;;;;;;9.90;3.60;;;;;;;41.39;28.02;96553.35;107918;1269;23907;-72
2022/08/26 07:13:41;;;;;;;5.50;3.10;;;;;;;42.27;27.69;96551.49;107871;1269;32472;-72
2022/08/26 07:16:15;;;;;;;5.00;3.00;;;;;;;43.04;27.43;96556.38;108006;1269;22525;-72
2022/08/26 07:18:51;;;;;;;9.00;3.50;;;;;;;42.93;24.68;96556.52;107979;1268;22541;-72
2022/08/26 07:21:25;;;;;;;7.00;3.20;;;;;;;41.47;24.63;96549.95;108025;1269;22557;-73
2022/08/26 07:23:57;;;;;;;5.80;3.00;;;;;;;40.91;25.70;96548.02;107924;1269;37243;-73
2022/08/26 07:26:30;;;;;;;8.30;3.10;;;;;;;40.72;25.89;96544.00;107976;1271;22552;-74
2022/08/26 07:29:02;;;;;;;6.40;3.10;;;;;;;40.92;27.07;96545.23;107932;1271;22574;-73
2022/08/26 07:31:35;;;;;;;7.00;3.40;;;;;;;41.87;26.62;96545.20;108007;1269;22855;-72
2022/08/26 07:34:08;;;;;;;9.60;3.80;;;;;;;42.21;25.69;96543.18;107899;1271;28046;-73
2022/08/26 07:36:39;;;;;;;6.00;3.60;;;;;;;42.13;24.01;96539.48;107986;1270;24230;-73
2022/08/26 07:39:14;;;;;;;9.10;3.70;;;;;;;40.68;23.94;96538.36;107932;1270;22521;-73
2022/08/26 07:41:46;;;;;;;5.80;3.40;;;;;;;40.24;25.67;96537.83;108004;1271;23405;-73
2022/08/26 07:44:18;;;;;;;6.90;3.60;;;;;;;40.60;26.67;96536.27;107925;1268;22530;-73
2022/08/26 07:46:49;;;;;;;7.60;3.10;;;;;;;41.80;27.02;96532.45;107833;1271;22527;-73
2022/08/26 07:49:21;;;;;;;7.10;3.20;;;;;;;43.00;25.85;96536.55;107933;1271;24263;-72
2022/08/26 07:51:54;;;;;;;7.80;3.50;;;;;;;43.60;25.55;96536.70;107868;1270;22611;-72
2022/08/26 07:54:28;;;;;;;4.70;3.10;;;;;;;44.28;24.91;96533.58;107841;1271;56095;-72
2022/08/26 07:57:00;;;;;;;5.50;3.40;;;;;;;44.65;24.35;96531.51;107996;1270;25455;-73
2022/08/26 07:59:32;;;;;;;8.00;3.40;;;;;;;44.86;23.58;96527.90;108004;1269;22538;-72
2022/08/26 08:02:04;;;;;;;4.40;2.90;;;;;;;44.66;24.18;96531.50;107890;1271;25276;-73
2022/08/26 08:04:35;;;;;;;7.40;3.20;;;;;;;44.99;23.56;96529.48;107850;1270;54208;-72
2022/08/26 08:07:07;;;;;;;6.00;3.00;;;;;;;44.93;23.19;96530.65;108001;1269;25248;-73
2022/08/26 08:09:38;;;;;;;7.20;3.30;;;;;;;44.91;23.52;96531.92;108044;1269;22629;-77
2022/08/26 08:12:10;;;;;;;7.00;3.50;;;;;;;45.20;22.93;96530.57;107924;1270;22648;-77
2022/08/26 08:14:44;;;;;;;9.10;3.00;;;;;;;45.42;23.31;96528.10;107898;1269;57941;-77
2022/08/26 08:17:16;;;;;;;6.50;2.80;;;;;;;46.04;22.76;96523.74;107988;1271;25324;-77
2022/08/26 08:19:47;;;;;;;7.90;3.40;;;;;;;45.31;21.67;96523.68;107972;1270;22554;-78
2022/08/26 08:22:22;;;;;;;6.40;2.90;;;;;;;44.67;22.58;96520.05;107960;1270;22583;-79
2022/08/26 08:24:54;;;;;;;6.90;3.10;;;;;;;45.21;23.46;96513.05;107913;1269;59340;-78
2022/08/26 08:27:26;;;;;;;9.30;3.40;;;;;;;45.82;22.35;96515.54;107837;1271;22538;-78
2022/08/26 08:29:58;;;;;;;5.20;2.90;;;;;;;46.13;22.80;96510.18;107912;1271;22636;-80
2022/08/26 08:32:29;;;;;;;5.90;2.90;;;;;;;46.49;21.13;96509.66;107941;1269;25951;-78
2022/08/26 08:35:02;;;;;;;7.20;3.10;;;;;;;45.11;20.88;96507.51;107871;1269;33679;-77
2022/08/26 08:37:33;;;;;;;5.50;2.70;;;;;;;45.28;22.73;96506.43;107800;1271;22534;-78
2022/08/26 08:40:06;;;;;;;10.40;3.50;;;;;;;46.20;22.58;96507.11;107864;1271;22537;-80
2022/08/26 08:42:47;;;;;;;6.10;3.40;;;;;;;46.59;21.46;96507.05;107846;1271;22597;-80
2022/08/26 08:45:25;;;;;;;9.40;3.10;;;;;;;46.65;22.11;96508.95;107827;1269;25313;-81
2022/08/26 08:47:59;;;;;;;6.40;3.30;;;;;;;47.02;21.84;96507.52;106694;1270;1546819;-80
2022/08/26 08:50:34;;;;;;;6.60;3.50;;;;;;;46.26;19.91;96508.04;107859;1269;22544;-79
2022/08/26 08:53:13;;;;;;;9.40;3.70;;;;;;;44.07;21.56;96505.64;107842;1269;22556;-79
2022/08/26 08:55:58;;;;;;;9.80;3.40;;;;;;;43.92;22.77;96506.02;107686;1271;23771;-79
2022/08/26 08:58:46;;;;;;;9.70;3.80;;;;;;;43.05;22.20;96507.27;107837;1269;22547;-80
2022/08/26 09:01:38;;;;;;;9.80;4.00;;;;;;;42.95;24.07;96502.03;107840;1269;22531;-80
2022/08/26 09:04:40;;;;;;;6.50;3.50;;;;;;;42.97;23.51;96499.05;107774;1269;37857;-79
2022/08/26 09:07:17;;;;;;;8.00;3.60;;;;;;;43.02;24.60;96504.28;107826;1269;23230;-79
2022/08/26 09:09:53;;;;;;;9.20;3.90;;;;;;;43.08;24.76;96502.30;107781;1271;22644;-79
2022/08/26 09:12:25;;;;;;;5.50;3.60;;;;;;;42.90;24.90;96504.28;107891;1271;22626;-79
2022/08/26 09:15:01;;;;;;;8.60;3.90;;;;;;;42.80;25.43;96498.77;107924;1270;27915;-78
2022/08/26 09:17:45;;;;;;;6.10;4.00;;;;;;;42.35;25.53;96499.39;107959;1271;22544;-79
2022/08/26 09:20:25;;;;;;;8.80;4.00;;;;;;;41.25;25.93;96493.76;107940;1269;24506;-79
2022/08/26 09:22:58;;;;;;;7.80;4.20;;;;;;;39.90;27.32;96494.40;107884;1269;23297;-79
2022/08/26 09:25:31;;;;;;;6.60;4.10;;;;;;;38.85;28.02;96493.46;107775;1269;46529;-80
2022/08/26 09:28:15;;;;;;;5.90;3.90;;;;;;;37.60;29.52;96493.47;107994;1269;22544;-80
2022/08/26 09:30:58;;;;;;;8.70;4.20;;;;;;;36.68;30.69;96489.10;108011;1269;22693;-80
2022/08/26 09:33:32;;;;;;;6.80;3.60;;;;;;;36.01;31.61;96488.56;107977;1269;25325;-81
2022/08/26 09:36:21;;;;;;;8.20;4.10;;;;;;;35.36;32.58;96481.63;107837;1271;22556;-80
2022/08/26 09:38:55;;;;;;;6.70;4.50;;;;;;;34.83;33.80;96478.55;107884;1269;22512;-80
2022/08/26 09:41:31;;;;;;;9.00;3.90;;;;;;;34.45;34.77;96475.48;107936;1269;23030;-77
2022/08/26 09:44:19;;;;;;;7.40;4.70;;;;;;;34.06;35.18;96476.02;107894;1270;29499;-79
2022/08/26 09:46:59;;;;;;;11.00;4.80;;;;;;;33.48;35.90;96472.59;107966;1269;25450;-79
2022/08/26 09:49:34;;;;;;;12.00;5.20;;;;;;;33.12;37.22;96474.11;107964;1269;22767;-79
2022/08/26 09:52:19;;;;;;;9.80;5.40;;;;;;;32.92;37.93;96472.40;108060;1269;22656;-79
2022/08/26 09:55:05;;;;;;;9.30;4.70;;;;;;;32.69;38.45;96470.93;107894;1269;30265;-79
2022/08/26 09:57:44;;;;;;;9.00;5.30;;;;;;;32.37;39.28;96466.70;108061;1269;22639;-80
2022/08/26 10:00:32;;;;;;;9.30;5.20;;;;;;;32.14;39.40;96463.14;107994;1269;22544;-80
2022/08/26 10:03:08;;;;;;;10.80;5.20;;;;;;;32.07;40.19;96463.52;107899;1271;24374;-80
2022/08/26 10:05:45;;;;;;;11.80;5.70;;;;;;;32.07;40.38;96461.97;108036;1269;25558;-77
2022/08/26 10:08:25;;;;;;;8.50;5.00;;;;;;;31.86;40.71;96457.52;107947;1268;22541;-79
2022/08/26 10:11:03;;;;;;;9.70;5.30;;;;;;;31.73;40.92;96458.77;108053;1268;22529;-79
2022/08/26 10:13:39;;;;;;;11.60;5.10;;;;;;;31.62;41.08;96465.15;107874;1270;37381;-78
2022/08/26 10:16:18;;;;;;;9.00;4.80;;;;;;;31.56;41.37;96461.97;107961;1270;24254;-79
2022/08/26 10:18:56;;;;;;;8.40;4.50;;;;;;;31.58;41.75;96461.09;108010;1269;22544;-79
2022/08/26 10:21:33;;;;;;;8.20;4.60;;;;;;;31.52;41.68;96458.60;108019;1269;22522;-80
2022/08/26 10:24:07;;;;;;;7.30;5.10;;;;;;;31.44;42.30;96458.13;107923;1269;25695;-78
2022/08/26 10:26:49;;;;;;;7.20;4.60;;;;;;;31.41;42.11;96457.86;107981;1270;25466;-78
2022/08/26 10:29:25;;;;;;;7.70;4.80;;;;;;;31.32;42.72;96452.46;107842;1271;22719;-79
2022/08/26 10:32:01;;;;;;;10.00;4.20;;;;;;;31.30;42.64;96451.09;107848;1271;25299;-79
2022/08/26 10:34:33;;;;;;;7.10;4.40;;;;;;;31.30;42.37;96450.07;107903;1271;35670;-79
2022/08/26 10:37:10;;;;;;;7.70;3.80;;;;;;;31.31;42.33;96450.44;107840;1271;25534;-79
2022/08/26 10:39:50;;;;;;;8.30;3.90;;;;;;;31.27;41.80;96446.68;107844;1271;22533;-79
2022/08/26 10:42:24;;;;;;;;;;;;;;;31.13;41.41;96443.98;107854;1270;22713;-79
2022/08/26 10:45:03;;;;;;;10.70;4.80;;;;;;;31.05;41.40;96444.34;107789;1269;32855;-79
2022/08/26 10:47:38;;;;;;;10.10;3.90;;;;;;;31.05;41.26;96437.08;107909;1269;23343;-79
2022/08/26 10:50:10;;;;;;;7.00;4.30;;;;;;;31.07;41.69;96439.55;107843;1268;22570;-80
2022/08/26 10:52:58;;;;;;;7.70;4.40;;;;;;;31.04;41.43;96441.79;107857;1270;22737;-79
2022/08/26 10:55:37;;;;;;;8.50;3.90;;;;;;;30.97;41.37;96437.45;107767;1271;34233;-80
2022/08/26 10:58:24;;;;;;;8.30;3.70;;;;;;;30.87;41.14;96438.70;107825;1269;22547;-79
2022/08/26 11:04:10;;;;;;;8.40;3.80;;;;;;;30.43;39.35;96432.83;107935;1269;29838;-80
2022/08/26 11:06:44;;;;;;;7.90;3.50;;;;;;;30.29;39.96;96432.64;107876;1269;22528;-79
2022/08/26 11:09:52;;;;;;;9.20;3.70;;;;;;;30.23;39.48;96429.98;107854;1271;22613;-80
2022/08/26 11:12:59;;;;;;;8.70;3.90;;;;;;;30.15;38.84;96430.46;107855;1269;25469;-80
2022/08/26 11:16:08;;;;;;;5.60;3.30;;;;;;;29.93;38.42;96426.90;107746;1270;42276;-81
2022/08/26 11:18:59;;;;;;;5.80;3.60;;;;;;;29.71;36.34;96423.73;107999;1270;23380;-81
2022/08/26 11:21:52;;;;;;;8.40;3.20;;;;;;;29.36;37.56;96426.02;108059;1270;25323;-81
2022/08/26 11:25:09;;;;;;;8.30;3.60;;;;;;;29.38;36.63;96426.30;107987;1269;36250;-81
2022/08/26 11:28:04;;;;;;;7.30;3.90;;;;;;;29.20;36.18;96422.97;107963;1269;22528;-80
2022/08/26 11:30:48;;;;;;;10.00;3.70;;;;;;;28.95;35.36;96422.95;107884;1269;22539;-80
2022/08/26 11:33:54;;;;;;;4.70;3.30;;;;;;;28.86;36.70;96415.85;107836;1269;23243;-81
2022/08/26 11:36:51;;;;;;;9.70;3.80;;;;;;;28.79;37.60;96413.55;107583;1274;25254;-81
2022/08/26 11:39:30;;;;;;;6.60;3.70;;;;;;;28.98;38.69;96418.32;107554;1274;23119;-80
2022/08/26 11:42:14;;;;;;;12.90;6.00;;;;;;;28.91;39.13;96411.52;107766;1269;25202;-80
2022/08/26 11:44:46;;;;;;;10.70;4.30;;;;;;;28.98;39.84;96410.61;107764;1270;32404;-80
2022/08/26 11:47:30;;;;;;;8.70;3.80;;;;;;;29.09;40.09;96407.16;107851;1269;22629;-79
2022/08/26 11:50:18;;;;;;;8.40;4.00;;;;;;;29.25;39.89;96401.23;107836;1270;25250;-80
2022/08/26 11:53:00;;;;;;;9.80;3.80;;;;;;;29.43;40.13;96398.55;107898;1269;24298;-82
2022/08/26 11:55:41;;;;;;;7.20;3.60;;;;;;;29.62;41.10;96400.40;107821;1269;25792;-82
2022/08/26 11:58:19;;;;;;;7.10;3.40;;;;;;;29.84;40.99;96394.44;108264;1269;22591;-81
2022/08/26 12:00:58;;;;;;;7.10;3.70;;;;;;;29.86;39.39;96390.28;108290;1269;22700;-82
2022/08/26 12:03:38;;;;;;;7.80;4.00;;;;;;;29.77;40.05;96387.42;108273;1269;22518;-82
2022/08/26 12:06:23;;;;;;;7.90;2.90;;;;;;;29.76;38.54;96383.23;107901;1271;22551;-82
2022/08/26 12:08:58;;;;;;;7.70;3.60;;;;;;;29.78;39.08;96381.39;107969;1269;22545;-83
2022/08/26 12:11:35;;;;;;;6.50;3.00;;;;;;;29.80;38.10;96380.83;107962;1270;22573;-83
2022/08/26 12:14:20;;;;;;;7.60;3.20;;;;;;;29.37;36.08;96375.14;107935;1269;35597;-82